Time;durP1;ratioP1;P1;durP2;ratioP2;P2;SDS_P1;SDS_P2;PMS_P1;PMS_P2;Temp;Humidity;BMP_temperature;BMP_pressure;BME280_temperature;BME280_humidity;BME280_pressure;Samples;Min_cycle;Max_cycle;Signal;HPM_P1;HPM_P2
2021/03/29 00:02:02;;;;;;;6.60;3.15;;;7.20;99.90;;;;;;4987230;28;20114;-77
2021/03/29 00:04:27;;;;;;;8.90;2.88;;;7.20;99.90;;;;;;4985666;28;20049;-77
2021/03/29 00:06:56;;;;;;;9.02;1.77;;;7.20;99.90;;;;;;4986031;28;20044;-77
2021/03/29 00:09:23;;;;;;;5.97;1.98;;;7.40;99.90;;;;;;4985715;28;20038;-77
2021/03/29 00:11:49;;;;;;;5.78;1.85;;;7.50;99.90;;;;;;4986185;28;20046;-75
2021/03/29 00:14:16;;;;;;;7.63;2.33;;;7.60;99.90;;;;;;4986124;28;20053;-77
2021/03/29 00:16:42;;;;;;;9.13;2.22;;;7.60;99.90;;;;;;4985947;28;20062;-75
2021/03/29 00:19:09;;;;;;;8.35;2.10;;;7.50;99.90;;;;;;4986523;28;20039;-78
2021/03/29 00:21:36;;;;;;;4.40;1.95;;;7.40;99.90;;;;;;4983624;28;20042;-75
2021/03/29 00:24:04;;;;;;;5.55;2.03;;;7.40;99.90;;;;;;4985720;28;20156;-77
2021/03/29 00:26:30;;;;;;;5.03;1.63;;;7.40;99.90;;;;;;4986627;28;20031;-75
2021/03/29 00:28:56;;;;;;;9.25;1.67;;;7.50;99.90;;;;;;4986237;28;20038;-77
2021/03/29 00:31:22;;;;;;;7.15;1.95;;;7.50;99.90;;;;;;4985703;28;20037;-75
2021/03/29 00:33:49;;;;;;;7.60;2.42;;;7.50;99.90;;;;;;4986844;28;20042;-75
2021/03/29 00:36:16;;;;;;;6.22;2.35;;;7.40;99.90;;;;;;4985169;28;20034;-77
2021/03/29 00:38:43;;;;;;;6.55;2.40;;;7.30;99.90;;;;;;4986537;28;20039;-74
2021/03/29 00:41:11;;;;;;;8.48;1.98;;;7.30;99.90;;;;;;4987106;28;20113;-77
2021/03/29 00:43:41;;;;;;;9.25;1.70;;;7.20;99.90;;;;;;4990847;28;20034;-77
2021/03/29 00:46:08;;;;;;;6.85;2.38;;;7.10;99.90;;;;;;4989045;28;20380;-77
2021/03/29 00:48:35;;;;;;;7.43;1.83;;;7.10;99.90;;;;;;4971095;28;20050;-77
2021/03/29 00:51:09;;;;;;;7.90;1.92;;;7.10;99.90;;;;;;4970352;28;20065;-75
2021/03/29 00:53:36;;;;;;;5.88;2.03;;;7.00;99.90;;;;;;4969041;28;20043;-74
2021/03/29 00:56:02;;;;;;;4.00;1.58;;;7.10;99.90;;;;;;4970355;28;20041;-77
2021/03/29 00:58:29;;;;;;;7.75;2.08;;;7.20;99.90;;;;;;4985750;28;20031;-77
2021/03/29 01:00:58;;;;;;;5.75;1.77;;;7.20;99.90;;;;;;4989400;28;20034;-75
2021/03/29 01:03:30;;;;;;;5.43;2.00;;;7.30;99.90;;;;;;4974182;28;20039;-77
2021/03/29 01:06:06;;;;;;;8.98;2.10;;;7.30;99.90;;;;;;4968942;28;20440;-75
2021/03/29 01:08:34;;;;;;;5.55;1.88;;;7.20;99.90;;;;;;4983842;28;20346;-74
2021/03/29 01:11:03;;;;;;;7.65;2.25;;;7.00;99.90;;;;;;4989279;28;20416;-77
2021/03/29 01:13:30;;;;;;;7.82;2.58;;;6.90;99.90;;;;;;4989010;28;20395;-75
2021/03/29 01:15:58;;;;;;;5.03;2.60;;;6.90;99.90;;;;;;4989182;28;20404;-77
2021/03/29 01:18:25;;;;;;;6.90;2.50;;;6.90;99.90;;;;;;4987615;28;20034;-75
2021/03/29 01:21:13;;;;;;;5.88;1.80;;;6.80;99.90;;;;;;4988143;28;20267;-77
2021/03/29 01:23:41;;;;;;;7.78;2.00;;;6.80;99.90;;;;;;4987647;28;20125;-77
2021/03/29 01:26:06;;;;;;;7.10;2.20;;;6.90;99.90;;;;;;4989185;28;20041;-77
2021/03/29 01:28:33;;;;;;;6.93;1.50;;;6.90;99.90;;;;;;4987508;28;20038;-78
2021/03/29 01:30:59;;;;;;;6.18;1.80;;;6.80;99.90;;;;;;4989150;28;20026;-75
2021/03/29 01:33:25;;;;;;;3.70;1.52;;;6.90;99.90;;;;;;4988207;28;20041;-77
2021/03/29 01:35:56;;;;;;;7.47;1.90;;;6.80;99.90;;;;;;4989417;28;20069;-78
2021/03/29 01:38:25;;;;;;;8.43;1.80;;;6.70;99.90;;;;;;4990821;28;20046;-78
2021/03/29 01:40:51;;;;;;;5.18;1.42;;;6.70;99.90;;;;;;4989763;28;20510;-75
2021/03/29 01:43:18;;;;;;;5.93;1.60;;;6.60;99.90;;;;;;4991533;28;20034;-77
2021/03/29 01:45:44;;;;;;;9.10;1.48;;;6.60;99.90;;;;;;4992679;28;20035;-77
2021/03/29 01:48:11;;;;;;;8.32;1.73;;;6.50;99.90;;;;;;4988527;28;20551;-77
2021/03/29 01:50:42;;;;;;;9.35;1.52;;;6.50;99.90;;;;;;4989342;28;20057;-77
2021/03/29 01:53:10;;;;;;;5.15;1.40;;;6.50;99.90;;;;;;4987314;28;20041;-77
2021/03/29 01:55:37;;;;;;;5.65;1.55;;;6.50;99.90;;;;;;4988763;28;20376;-77
2021/03/29 01:58:04;;;;;;;4.95;1.63;;;6.50;99.90;;;;;;4985048;28;20041;-75
2021/03/29 02:00:32;;;;;;;6.05;1.95;;;6.50;99.90;;;;;;4969362;28;20109;-74
2021/03/29 02:03:06;;;;;;;5.95;1.80;;;6.50;99.90;;;;;;4967676;28;20514;-77
2021/03/29 02:05:32;;;;;;;7.50;2.50;;;6.50;99.90;;;;;;4988087;28;20046;-74
2021/03/29 02:07:58;;;;;;;6.30;2.10;;;6.40;99.90;;;;;;4987396;28;20514;-75
2021/03/29 02:10:28;;;;;;;6.30;2.00;;;6.30;99.90;;;;;;4988426;28;20069;-75
2021/03/29 02:12:54;;;;;;;6.25;1.80;;;6.30;99.90;;;;;;4988329;28;20026;-77
2021/03/29 02:15:24;;;;;;;4.95;1.30;;;6.30;99.90;;;;;;4987382;28;20026;-75
2021/03/29 02:17:55;;;;;;;7.07;1.83;;;6.10;99.90;;;;;;4988119;28;20038;-75
2021/03/29 02:20:25;;;;;;;9.65;2.25;;;6.10;99.90;;;;;;4987392;28;20472;-77
2021/03/29 02:22:53;;;;;;;6.55;1.70;;;6.10;99.90;;;;;;4987885;28;20110;-77
2021/03/29 02:25:21;;;;;;;8.30;1.90;;;6.10;99.90;;;;;;4987530;28;20037;-77
2021/03/29 02:27:51;;;;;;;6.97;2.05;;;6.10;99.90;;;;;;4987725;28;20030;-77
2021/03/29 02:30:22;;;;;;;6.40;1.60;;;6.00;99.90;;;;;;4986980;28;20483;-77
2021/03/29 02:32:49;;;;;;;6.20;2.03;;;6.00;99.90;;;;;;4987873;28;20460;-76
2021/03/29 02:35:16;;;;;;;7.40;1.60;;;5.70;99.90;;;;;;4987391;28;20037;-75
2021/03/29 02:37:47;;;;;;;8.35;2.20;;;5.80;99.90;;;;;;4986055;28;20035;-77
2021/03/29 02:40:15;;;;;;;4.40;1.80;;;5.80;99.90;;;;;;4988222;28;20038;-74
2021/03/29 02:42:41;;;;;;;5.82;2.00;;;5.80;99.90;;;;;;4986819;28;20424;-78
2021/03/29 02:45:12;;;;;;;7.63;2.30;;;5.80;99.90;;;;;;4987758;28;20061;-77
2021/03/29 02:47:47;;;;;;;6.00;2.25;;;5.80;99.90;;;;;;4982980;28;20105;-77
2021/03/29 02:50:18;;;;;;;6.22;2.08;;;5.70;99.90;;;;;;4967855;28;20425;-75
2021/03/29 02:52:48;;;;;;;8.50;1.90;;;5.60;99.90;;;;;;4970302;28;20037;-78
2021/03/29 02:55:16;;;;;;;6.93;1.73;;;5.60;99.90;;;;;;4987794;28;20491;-78
2021/03/29 02:57:45;;;;;;;5.72;1.70;;;5.60;99.90;;;;;;4986447;28;20034;-75
2021/03/29 03:00:21;;;;;;;6.78;2.45;;;5.60;99.90;;;;;;4987390;28;20522;-76
2021/03/29 03:02:48;;;;;;;6.18;1.60;;;5.50;99.90;;;;;;4985737;28;20026;-77
2021/03/29 03:05:15;;;;;;;4.43;1.60;;;5.60;99.90;;;;;;4986524;28;20073;-74
2021/03/29 03:07:41;;;;;;;6.75;1.83;;;5.60;99.90;;;;;;4985673;28;20034;-75
2021/03/29 03:10:09;;;;;;;7.32;1.65;;;5.50;99.90;;;;;;4986485;28;20384;-77
2021/03/29 03:12:37;;;;;;;6.65;2.10;;;5.40;99.90;;;;;;4986354;28;20026;-75
2021/03/29 03:15:09;;;;;;;7.85;1.90;;;5.50;99.90;;;;;;5000490;28;20034;-75
2021/03/29 03:17:35;;;;;;;6.03;1.90;;;5.40;99.90;;;;;;4991197;28;20034;-77
2021/03/29 03:20:00;;;;;;;7.78;1.88;;;5.40;99.90;;;;;;4985317;28;20117;-78
2021/03/29 03:22:26;;;;;;;6.20;2.03;;;5.40;99.90;;;;;;4984693;28;20117;-77
2021/03/29 03:24:52;;;;;;;6.18;2.30;;;5.30;99.90;;;;;;4980216;28;20049;-76
2021/03/29 03:27:18;;;;;;;5.45;1.45;;;5.40;99.90;;;;;;4968488;28;20027;-77
2021/03/29 03:29:43;;;;;;;6.20;2.17;;;5.30;99.90;;;;;;4970003;28;20474;-77
2021/03/29 03:32:13;;;;;;;97.95;55.42;;;5.20;99.90;;;;;;4987567;28;20387;-74
2021/03/29 03:34:39;;;;;;;55.63;29.95;;;5.20;99.90;;;;;;4985771;28;20567;-77
2021/03/29 03:37:08;;;;;;;16.48;8.00;;;5.20;99.90;;;;;;4987382;28;20113;-77
2021/03/29 03:39:35;;;;;;;12.77;6.45;;;5.10;99.90;;;;;;4986991;28;20061;-77
2021/03/29 03:42:02;;;;;;;11.20;4.53;;;5.20;99.90;;;;;;4987547;28;20030;-77
2021/03/29 03:44:30;;;;;;;7.82;2.83;;;5.20;99.90;;;;;;4986058;28;20042;-74
2021/03/29 03:46:56;;;;;;;10.10;3.28;;;5.10;99.90;;;;;;4987425;28;20498;-76
2021/03/29 03:49:23;;;;;;;7.18;2.70;;;5.10;99.90;;;;;;4985588;28;20057;-74
2021/03/29 03:51:49;;;;;;;5.97;1.88;;;5.10;99.90;;;;;;4985665;28;20022;-75
2021/03/29 03:54:18;;;;;;;6.47;1.92;;;5.10;99.90;;;;;;4977165;28;20038;-77
2021/03/29 03:56:46;;;;;;;7.30;2.22;;;5.10;99.90;;;;;;4965709;28;20035;-78
2021/03/29 03:59:12;;;;;;;9.60;2.40;;;5.00;99.90;;;;;;4973206;28;20101;-77
2021/03/29 04:01:52;;;;;;;9.77;2.53;;;4.90;99.90;;;;;;4985502;28;20038;-74
2021/03/29 04:04:18;;;;;;;9.55;2.10;;;4.80;99.90;;;;;;4980021;28;20031;-77
2021/03/29 04:06:44;;;;;;;6.88;1.90;;;4.90;99.90;;;;;;4967926;28;20045;-74
2021/03/29 04:09:10;;;;;;;9.20;3.15;;;4.80;99.90;;;;;;4970242;28;20030;-75
2021/03/29 04:11:36;;;;;;;10.50;2.20;;;4.90;99.90;;;;;;4987876;28;20042;-77
2021/03/29 04:14:03;;;;;;;7.78;1.83;;;4.90;99.90;;;;;;4986401;28;20034;-77
2021/03/29 04:16:28;;;;;;;6.90;1.77;;;4.90;99.90;;;;;;4991169;28;20049;-77
2021/03/29 04:18:54;;;;;;;8.27;1.90;;;4.80;99.90;;;;;;4990351;28;20030;-75
2021/03/29 04:21:19;;;;;;;8.75;1.75;;;4.80;99.90;;;;;;4988908;28;20439;-75
2021/03/29 04:23:45;;;;;;;5.80;2.30;;;4.80;99.90;;;;;;4990209;28;20081;-74
2021/03/29 04:26:11;;;;;;;6.57;2.40;;;4.70;99.90;;;;;;4988706;28;20057;-75
2021/03/29 04:28:36;;;;;;;8.65;1.55;;;4.80;99.90;;;;;;4990143;28;20033;-75
2021/03/29 04:31:02;;;;;;;6.72;2.33;;;4.80;99.90;;;;;;4988808;28;20038;-77
2021/03/29 04:33:28;;;;;;;6.07;1.95;;;4.80;99.90;;;;;;4989176;28;20034;-74
2021/03/29 04:35:53;;;;;;;7.43;1.95;;;4.90;99.90;;;;;;4988895;28;20038;-77
2021/03/29 04:38:19;;;;;;;7.38;2.28;;;4.80;99.90;;;;;;4989571;28;20038;-75
2021/03/29 04:40:45;;;;;;;6.10;2.20;;;4.80;99.90;;;;;;4989159;28;20030;-77
2021/03/29 04:43:11;;;;;;;7.13;1.90;;;4.70;99.90;;;;;;4990502;28;20062;-77
2021/03/29 04:45:37;;;;;;;8.77;2.08;;;4.70;99.90;;;;;;4989114;28;20053;-77
2021/03/29 04:48:03;;;;;;;5.20;1.90;;;4.70;99.90;;;;;;4989724;28;20033;-79
2021/03/29 04:50:29;;;;;;;9.20;1.90;;;4.70;99.90;;;;;;4988541;28;20061;-77
2021/03/29 04:52:54;;;;;;;10.77;2.50;;;4.70;99.90;;;;;;4989278;28;20030;-77
2021/03/29 04:55:21;;;;;;;10.48;2.40;;;4.70;99.90;;;;;;4988956;28;20030;-75
2021/03/29 04:57:46;;;;;;;8.20;2.15;;;4.60;99.90;;;;;;4988722;28;20034;-77
2021/03/29 05:00:13;;;;;;;8.93;2.60;;;4.70;99.90;;;;;;4989968;28;20092;-75
2021/03/29 05:02:39;;;;;;;9.00;2.45;;;4.60;99.90;;;;;;4969568;28;20133;-75
2021/03/29 05:05:06;;;;;;;6.68;2.38;;;4.60;99.90;;;;;;4969266;28;20690;-77
2021/03/29 05:07:32;;;;;;;9.07;2.95;;;4.50;99.90;;;;;;4988075;28;20065;-77
2021/03/29 05:09:57;;;;;;;10.43;2.72;;;4.60;99.90;;;;;;4984932;28;20114;-77
2021/03/29 05:12:23;;;;;;;7.97;3.05;;;4.60;99.90;;;;;;4986642;28;20057;-75
2021/03/29 05:14:50;;;;;;;11.35;3.40;;;4.50;99.90;;;;;;4989555;28;20073;-77
2021/03/29 05:17:17;;;;;;;8.40;2.95;;;4.60;99.90;;;;;;4986647;28;20085;-77
2021/03/29 05:19:42;;;;;;;15.55;3.88;;;4.40;99.90;;;;;;4980440;28;20034;-77
2021/03/29 05:22:09;;;;;;;10.73;3.42;;;4.40;99.90;;;;;;4983351;28;20084;-75
2021/03/29 05:24:35;;;;;;;11.25;3.13;;;4.40;99.90;;;;;;4985191;28;20117;-77
2021/03/29 05:27:03;;;;;;;10.20;3.65;;;4.50;99.90;;;;;;4984396;28;20038;-78
2021/03/29 05:29:40;;;;;;;12.98;3.65;;;4.50;99.90;;;;;;4981307;28;20097;-75
2021/03/29 05:32:17;;;;;;;10.98;3.15;;;4.50;99.90;;;;;;4985969;28;20030;-77
2021/03/29 05:34:45;;;;;;;8.35;3.03;;;4.50;99.90;;;;;;4987381;28;20491;-75
2021/03/29 05:37:15;;;;;;;17.98;3.83;;;4.50;99.90;;;;;;4987084;28;20038;-77
2021/03/29 05:39:41;;;;;;;10.52;4.00;;;4.50;99.90;;;;;;4979035;28;20505;-75
2021/03/29 05:42:08;;;;;;;12.05;3.75;;;4.60;99.90;;;;;;4977834;28;20026;-76
2021/03/29 05:44:35;;;;;;;11.23;3.45;;;4.60;99.90;;;;;;4987378;28;20057;-78
2021/03/29 05:47:01;;;;;;;14.70;4.25;;;4.60;99.90;;;;;;4987254;28;20034;-75
2021/03/29 05:49:27;;;;;;;19.70;4.38;;;4.60;99.90;;;;;;4984606;28;20026;-75
2021/03/29 05:51:53;;;;;;;14.57;4.38;;;4.60;99.90;;;;;;4986803;28;20510;-76
2021/03/29 05:54:19;;;;;;;15.30;5.53;;;4.70;99.90;;;;;;4985740;28;20034;-75
2021/03/29 05:56:46;;;;;;;16.90;5.32;;;4.60;99.90;;;;;;5000528;28;20534;-75
2021/03/29 05:59:21;;;;;;;15.52;5.20;;;4.60;99.90;;;;;;4987977;28;20146;-75
2021/03/29 06:01:48;;;;;;;11.23;4.28;;;4.70;99.90;;;;;;4985880;28;20176;-75
2021/03/29 06:04:15;;;;;;;16.58;4.65;;;4.70;99.90;;;;;;4986677;28;20034;-75
2021/03/29 06:06:41;;;;;;;11.10;4.18;;;4.70;99.90;;;;;;4986795;28;20034;-77
2021/03/29 06:09:08;;;;;;;11.25;4.22;;;4.70;99.90;;;;;;4986303;28;20038;-78
2021/03/29 06:11:40;;;;;;;10.07;3.78;;;4.70;99.90;;;;;;4981324;28;20142;-77
2021/03/29 06:14:15;;;;;;;14.63;4.85;;;4.70;99.90;;;;;;4980538;28;20101;-74
2021/03/29 06:17:01;;;;;;;15.02;5.20;;;4.70;99.90;;;;;;4986563;28;20755;-75
2021/03/29 06:19:43;;;;;;;15.15;5.30;;;4.80;99.90;;;;;;4978155;28;20041;-75
2021/03/29 06:22:17;;;;;;;14.15;5.93;;;4.80;99.90;;;;;;4983744;28;20104;-77
2021/03/29 06:25:21;;;;;;;18.88;6.63;;;4.80;99.90;;;;;;4979722;28;20092;-75
2021/03/29 06:27:48;;;;;;;15.85;5.05;;;4.90;99.90;;;;;;4964772;28;20031;-75
2021/03/29 06:30:23;;;;;;;12.10;4.10;;;5.00;99.90;;;;;;4964637;28;20077;-75
2021/03/29 06:33:05;;;;;;;10.05;4.10;;;5.10;99.90;;;;;;4968869;28;20134;-77
2021/03/29 06:35:41;;;;;;;12.82;4.20;;;5.20;99.90;;;;;;4984299;28;20038;-77
2021/03/29 06:38:17;;;;;;;14.88;5.70;;;5.40;99.90;;;;;;4989932;28;20169;-77
2021/03/29 06:40:54;;;;;;;15.05;5.22;;;5.60;99.90;;;;;;4980961;28;20038;-77
2021/03/29 06:43:35;;;;;;;18.67;5.15;;;5.80;99.90;;;;;;4984307;28;20547;-77
2021/03/29 06:46:18;;;;;;;16.02;4.55;;;6.10;99.90;;;;;;4982486;28;20413;-75
2021/03/29 06:48:43;;;;;;;;;;;6.40;99.90;;;;;;4980936;28;20381;-75
2021/03/29 06:51:20;;;;;;;15.00;4.72;;;6.60;99.90;;;;;;4982953;28;19913;-77
2021/03/29 06:53:55;;;;;;;16.45;4.90;;;6.80;99.90;;;;;;4984539;28;20031;-77
2021/03/29 06:56:36;;;;;;;10.90;4.22;;;7.00;99.90;;;;;;4980460;28;20035;-76
2021/03/29 06:59:04;;;;;;;12.73;3.50;;;7.30;99.90;;;;;;4979585;28;20039;-77
2021/03/29 07:01:32;;;;;;;17.02;4.70;;;7.50;99.90;;;;;;4974913;28;20496;-75
2021/03/29 07:03:59;;;;;;;17.20;4.20;;;7.70;99.90;;;;;;4980330;28;20029;-76
2021/03/29 07:06:26;;;;;;;16.60;4.40;;;8.00;99.90;;;;;;4983905;28;20057;-75
2021/03/29 07:09:02;;;;;;;10.68;3.00;;;8.20;99.90;;;;;;4983205;28;20054;-78
2021/03/29 07:11:28;;;;;;;13.77;4.43;;;8.30;99.90;;;;;;4981743;28;20033;-75
2021/03/29 07:13:54;;;;;;;12.02;3.78;;;8.60;99.90;;;;;;4990732;28;20456;-76
2021/03/29 07:16:21;;;;;;;10.52;3.60;;;8.80;99.90;;;;;;4991149;28;20407;-77
2021/03/29 07:18:48;;;;;;;11.38;4.28;;;8.90;99.90;;;;;;4983724;28;20085;-77
2021/03/29 07:21:16;;;;;;;16.65;5.00;;;9.10;99.90;;;;;;4995317;28;20034;-77
2021/03/29 07:23:42;;;;;;;13.02;4.38;;;9.30;99.90;;;;;;4994076;28;20038;-77
2021/03/29 07:26:37;;;;;;;10.23;3.53;;;9.60;99.90;;;;;;4990609;28;20482;-75
2021/03/29 07:29:22;;;;;;;12.18;4.25;;;9.70;99.90;;;;;;4987707;28;20444;-77
2021/03/29 07:31:51;;;;;;;13.30;4.13;;;9.90;99.90;;;;;;5006002;28;20049;-77
2021/03/29 07:34:18;;;;;;;11.73;4.00;;;10.00;99.90;;;;;;4994533;28;20033;-75
2021/03/29 07:36:49;;;;;;;15.13;5.28;;;10.10;99.90;;;;;;4981001;28;20038;-75
2021/03/29 07:39:39;;;;;;;11.48;4.65;;;10.20;99.90;;;;;;4994833;28;20452;-75
2021/03/29 07:42:25;;;;;;;12.95;4.10;;;10.20;99.60;;;;;;4986622;28;20558;-77
2021/03/29 07:44:54;;;;;;;11.63;4.40;;;10.30;99.80;;;;;;4984890;28;20083;-77
2021/03/29 07:47:50;;;;;;;14.88;4.53;;;10.40;99.60;;;;;;4980311;28;20046;-75
2021/03/29 07:50:23;;;;;;;11.02;3.55;;;10.70;99.60;;;;;;4975719;28;20035;-77
2021/03/29 07:52:54;;;;;;;17.20;4.25;;;10.90;98.70;;;;;;4985820;28;20038;-77
2021/03/29 07:55:22;;;;;;;13.98;4.13;;;10.90;97.00;;;;;;4994120;28;20081;-77
2021/03/29 07:57:51;;;;;;;15.93;3.35;;;11.20;97.20;;;;;;4988036;28;20065;-77
2021/03/29 08:00:25;;;;;;;9.15;3.88;;;11.20;94.30;;;;;;5001937;28;20045;-75
2021/03/29 08:02:58;;;;;;;11.80;3.72;;;11.40;95.80;;;;;;4989811;28;20029;-75
2021/03/29 08:05:46;;;;;;;18.90;3.67;;;11.60;96.60;;;;;;5001356;28;20097;-77
2021/03/29 08:08:27;;;;;;;16.60;4.72;;;11.80;95.60;;;;;;5000198;28;20053;-77
2021/03/29 08:11:10;;;;;;;13.90;4.63;;;12.10;95.30;;;;;;4989359;28;20030;-75
2021/03/29 08:13:36;;;;;;;9.98;3.80;;;12.20;93.70;;;;;;4993903;28;20040;-77
2021/03/29 08:16:03;;;;;;;18.35;4.72;;;12.10;93.20;;;;;;4996890;28;20027;-77
2021/03/29 08:18:28;;;;;;;11.70;3.53;;;12.20;93.40;;;;;;4994527;28;20042;-77
2021/03/29 08:20:54;;;;;;;10.07;3.50;;;12.30;93.20;;;;;;4994139;28;20415;-77
2021/03/29 08:23:36;;;;;;;12.77;3.83;;;12.60;92.40;;;;;;5001370;28;20037;-77
2021/03/29 08:26:14;;;;;;;10.90;3.67;;;12.40;92.00;;;;;;4987974;28;20019;-75
2021/03/29 08:29:08;;;;;;;10.95;3.03;;;12.10;91.20;;;;;;4988964;28;20038;-76
2021/03/29 08:32:02;;;;;;;11.25;3.03;;;12.20;91.00;;;;;;4989713;28;20035;-77
2021/03/29 08:34:32;;;;;;;10.00;2.83;;;12.20;88.10;;;;;;4983147;28;20038;-77
2021/03/29 08:37:05;;;;;;;11.57;2.92;;;12.00;87.40;;;;;;4994083;28;20806;-75
2021/03/29 08:39:36;;;;;;;16.45;3.15;;;11.90;88.00;;;;;;4995102;28;20026;-76
2021/03/29 08:42:03;;;;;;;8.68;2.88;;;12.10;87.00;;;;;;4993439;28;20038;-76
2021/03/29 08:44:30;;;;;;;9.13;2.63;;;12.40;86.20;;;;;;4992273;28;20062;-77
2021/03/29 08:46:57;;;;;;;9.93;2.72;;;12.80;86.10;;;;;;5008021;28;20034;-77
2021/03/29 08:49:24;;;;;;;10.02;3.25;;;13.10;84.20;;;;;;4986723;28;20034;-77
2021/03/29 08:51:53;;;;;;;9.50;2.55;;;12.90;81.20;;;;;;4989999;28;20026;-77
2021/03/29 08:54:19;;;;;;;12.20;2.88;;;12.60;82.00;;;;;;4995877;28;20113;-75
2021/03/29 08:56:49;;;;;;;7.35;2.10;;;12.60;79.60;;;;;;4993684;28;20079;-76
2021/03/29 08:59:15;;;;;;;11.27;2.40;;;12.30;80.10;;;;;;4991290;28;20042;-78
2021/03/29 09:01:41;;;;;;;9.20;2.33;;;12.60;80.60;;;;;;4982355;28;20026;-78
2021/03/29 09:04:08;;;;;;;7.00;1.98;;;12.80;79.00;;;;;;4981781;28;20031;-77
2021/03/29 09:06:35;;;;;;;6.60;2.55;;;12.60;78.50;;;;;;4984971;28;20798;-75
2021/03/29 09:09:17;;;;;;;7.70;1.95;;;12.40;78.90;;;;;;4977608;28;20027;-78
2021/03/29 09:11:45;;;;;;;10.45;2.67;;;12.70;82.50;;;;;;5007711;28;20038;-78
2021/03/29 09:14:12;;;;;;;6.65;2.03;;;12.90;77.70;;;;;;4991840;28;20529;-75
2021/03/29 09:16:38;;;;;;;7.65;1.80;;;13.00;77.80;;;;;;4993466;28;20044;-76
2021/03/29 09:19:16;;;;;;;8.30;1.80;;;12.80;76.10;;;;;;4996250;28;20031;-76
2021/03/29 09:21:42;;;;;;;10.05;2.60;;;13.30;77.60;;;;;;5046532;22;20047;-76
2021/03/29 09:26:54;;;;;;;7.75;2.25;;;13.60;78.10;;;;;;5086223;23;20111;-76
2021/03/29 09:29:22;;;;;;;6.80;2.53;;;13.50;76.50;;;;;;5036220;23;20499;-76
2021/03/29 09:31:48;;;;;;;7.05;1.77;;;13.30;77.60;;;;;;5083061;22;20041;-76
2021/03/29 09:34:30;;;;;;;7.43;1.88;;;13.40;75.60;;;;;;5046342;23;20057;-76
2021/03/29 09:36:56;;;;;;;6.35;1.48;;;13.10;73.80;;;;;;5009953;23;20042;-76
2021/03/29 09:39:23;;;;;;;7.95;1.27;;;13.20;74.10;;;;;;5004748;28;20041;-76
2021/03/29 09:41:52;;;;;;;6.38;1.20;;;13.80;73.90;;;;;;5014187;23;20422;-76
2021/03/29 09:44:25;;;;;;;6.22;1.50;;;14.20;73.50;;;;;;5015466;28;20045;-76
2021/03/29 09:46:56;;;;;;;6.55;1.40;;;14.50;72.70;;;;;;5056122;23;20045;-76
2021/03/29 09:49:23;;;;;;;9.05;1.42;;;14.80;73.70;;;;;;5049256;23;20724;-76
2021/03/29 09:51:50;;;;;;;6.75;1.63;;;14.70;70.10;;;;;;5036146;23;20057;-76
2021/03/29 09:54:35;;;;;;;8.50;1.88;;;14.30;69.80;;;;;;5037666;23;20028;-76
2021/03/29 09:57:27;;;;;;;5.90;1.35;;;14.00;69.50;;;;;;5046334;28;20068;-76
2021/03/29 09:59:54;;;;;;;12.40;1.75;;;14.10;70.30;;;;;;5048989;23;20855;-76
2021/03/29 10:02:27;;;;;;;4.10;1.30;;;14.00;72.00;;;;;;5042960;23;21141;-76
2021/03/29 10:05:04;;;;;;;10.00;1.40;;;13.80;67.50;;;;;;5050508;28;20029;-76
2021/03/29 10:07:30;;;;;;;7.53;1.40;;;14.00;68.20;;;;;;5047555;28;20074;-76
2021/03/29 10:10:00;;;;;;;5.85;1.52;;;14.00;65.30;;;;;;5050237;28;20717;-76
2021/03/29 10:12:30;;;;;;;5.28;1.63;;;13.90;66.20;;;;;;5047614;28;20087;-76
2021/03/29 10:15:31;;;;;;;8.30;1.40;;;14.00;69.10;;;;;;5052471;23;20436;-76
2021/03/29 10:18:34;;;;;;;5.25;1.50;;;14.10;65.90;;;;;;5011812;28;20421;-76
2021/03/29 10:21:28;;;;;;;7.10;1.40;;;14.30;67.50;;;;;;5016767;28;20072;-76
2021/03/29 10:24:10;;;;;;;4.82;1.67;;;14.70;65.50;;;;;;5035321;23;20057;-76
2021/03/29 10:26:38;;;;;;;8.30;2.00;;;15.30;65.70;;;;;;5102291;23;20127;-76
2021/03/29 10:29:05;;;;;;;7.70;1.70;;;15.50;65.20;;;;;;5005216;28;20041;-76
2021/03/29 10:31:33;;;;;;;5.50;1.75;;;15.80;61.60;;;;;;5017322;28;20038;-76
2021/03/29 10:34:00;;;;;;;10.85;1.80;;;15.70;62.10;;;;;;5006227;28;20022;-76
2021/03/29 10:36:28;;;;;;;9.43;2.65;;;15.50;60.10;;;;;;5016147;23;20137;-76
2021/03/29 10:38:57;;;;;;;7.45;1.90;;;15.20;61.50;;;;;;5006162;28;20489;-76
2021/03/29 10:41:26;;;;;;;8.70;1.98;;;15.40;62.70;;;;;;5006604;28;20026;-77
2021/03/29 10:43:55;;;;;;;6.72;2.03;;;15.50;63.80;;;;;;5003575;28;20037;-77
2021/03/29 10:46:25;;;;;;;11.38;2.58;;;15.90;63.90;;;;;;5008641;28;20049;-76
2021/03/29 10:49:00;;;;;;;13.77;2.85;;;16.00;64.50;;;;;;4990527;28;20022;-76
2021/03/29 10:51:31;;;;;;;9.55;1.75;;;16.30;63.90;;;;;;4996481;28;20038;-77
2021/03/29 11:05:36;;;;;;;8.55;1.60;;;16.20;59.80;;;;;;5019609;23;20146;-76
2021/03/29 11:13:19;;;;;;;6.30;1.50;;;16.60;61.40;;;;;;5023450;23;20061;-77
2021/03/29 11:15:55;;;;;;;4.68;1.52;;;16.90;58.30;;;;;;5066956;23;20066;-77
2021/03/29 11:18:24;;;;;;;5.28;1.10;;;16.90;59.50;;;;;;5050312;23;20421;-77
2021/03/29 11:20:56;;;;;;;4.78;1.35;;;16.40;58.90;;;;;;5183069;23;20069;-76
2021/03/29 11:26:52;;;;;;;5.28;1.20;;;16.80;63.60;;;;;;5036826;23;19921;-77
2021/03/29 11:32:53;;;;;;;7.72;1.40;;;16.40;59.50;;;;;;5006105;28;20033;-77
2021/03/29 11:35:19;;;;;;;10.98;1.00;;;16.30;60.50;;;;;;5037490;23;20168;-77
2021/03/29 11:37:54;;;;;;;8.18;1.02;;;16.80;61.70;;;;;;5102078;23;20973;-77
2021/03/29 11:40:20;;;;;;;5.88;1.13;;;16.40;57.60;;;;;;5034438;23;20647;-77
2021/03/29 11:42:55;;;;;;;4.97;1.10;;;16.50;56.10;;;;;;5037402;23;20049;-76
2021/03/29 11:45:23;;;;;;;8.30;1.08;;;16.60;58.10;;;;;;5023414;28;20060;-77
2021/03/29 11:47:52;;;;;;;6.88;1.10;;;16.60;59.50;;;;;;5020215;28;20018;-77
2021/03/29 11:50:18;;;;;;;8.35;1.00;;;16.60;55.90;;;;;;5022345;28;20498;-77
2021/03/29 11:52:44;;;;;;;3.95;1.15;;;16.60;56.10;;;;;;5024359;28;20064;-77
2021/03/29 11:55:11;;;;;;;5.60;1.38;;;16.70;60.80;;;;;;5027393;28;20030;-77
2021/03/29 11:57:39;;;;;;;6.63;1.45;;;16.90;62.60;;;;;;5060254;23;20136;-77
2021/03/29 12:00:09;;;;;;;6.22;1.33;;;17.20;61.50;;;;;;5125659;23;20106;-77
2021/03/29 12:02:51;;;;;;;5.93;0.90;;;17.10;62.20;;;;;;5035624;28;20029;-75
2021/03/29 12:05:23;;;;;;;;;;;17.10;60.60;;;;;;5030320;28;20033;-77
2021/03/29 12:12:45;;;;;;;5.00;1.00;;;17.40;58.20;;;;;;5015603;28;20038;-74
2021/03/29 12:15:13;;;;;;;4.43;1.30;;;17.40;59.90;;;;;;5020271;28;20512;-74
2021/03/29 12:17:40;;;;;;;4.05;1.00;;;17.60;61.30;;;;;;5027792;28;20131;-75
2021/03/29 12:20:07;;;;;;;6.22;1.27;;;17.60;59.70;;;;;;5013932;28;20052;-75
2021/03/29 12:22:34;;;;;;;4.13;1.10;;;17.80;58.80;;;;;;5022511;28;20033;-74
2021/03/29 12:25:00;;;;;;;3.58;1.00;;;17.90;58.30;;;;;;5020370;28;20069;-75
2021/03/29 12:27:26;;;;;;;8.32;1.00;;;17.80;57.30;;;;;;5016479;28;20459;-75
2021/03/29 12:29:54;;;;;;;6.38;1.65;;;18.00;57.70;;;;;;5014367;28;20075;-75
2021/03/29 12:32:21;;;;;;;3.63;0.98;;;17.90;55.80;;;;;;5016193;28;20076;-75
2021/03/29 12:34:50;;;;;;;5.90;1.20;;;17.80;57.50;;;;;;5021199;28;20065;-75
2021/03/29 12:37:17;;;;;;;9.88;1.45;;;18.00;56.30;;;;;;5024479;28;20063;-75
2021/03/29 12:39:47;;;;;;;11.93;1.70;;;18.10;57.70;;;;;;5032443;28;20048;-75
2021/03/29 12:42:15;;;;;;;6.97;1.33;;;18.30;59.20;;;;;;5022026;28;20052;-75
2021/03/29 12:44:41;;;;;;;6.20;1.15;;;18.40;60.30;;;;;;5019191;28;20053;-75
2021/03/29 12:47:11;;;;;;;5.88;1.55;;;18.50;59.10;;;;;;5021911;28;20478;-75
2021/03/29 12:49:36;;;;;;;6.15;1.30;;;18.70;59.30;;;;;;5021358;28;20092;-75
2021/03/29 12:52:03;;;;;;;6.95;1.55;;;18.70;59.80;;;;;;5021696;28;20541;-75
2021/03/29 12:54:31;;;;;;;6.78;1.38;;;18.60;57.90;;;;;;5022260;28;20056;-75
2021/03/29 12:56:58;;;;;;;4.43;1.50;;;18.40;58.10;;;;;;5019339;28;20025;-74
2021/03/29 12:59:25;;;;;;;10.68;1.27;;;18.60;57.90;;;;;;5023289;28;20103;-75
2021/03/29 13:01:52;;;;;;;3.28;0.88;;;18.30;56.70;;;;;;5022673;28;20071;-74
2021/03/29 13:04:23;;;;;;;4.50;1.42;;;18.30;55.90;;;;;;5015756;28;20482;-75
2021/03/29 13:07:00;;;;;;;5.20;1.15;;;18.30;56.50;;;;;;5021860;28;20117;-75
2021/03/29 13:11:58;;;;;;;10.85;1.63;;;18.40;55.10;;;;;;5021056;28;20026;-75
2021/03/29 13:14:24;;;;;;;3.80;1.17;;;18.50;55.10;;;;;;5010413;28;20060;-75
2021/03/29 13:16:51;;;;;;;6.53;1.10;;;18.60;55.40;;;;;;5014035;28;20510;-75
2021/03/29 13:19:16;;;;;;;5.43;1.00;;;18.70;53.20;;;;;;5025735;28;20033;-75
2021/03/29 13:21:42;;;;;;;5.10;1.00;;;18.80;54.40;;;;;;5018189;28;20030;-75
2021/03/29 13:24:09;;;;;;;6.63;1.20;;;18.80;53.20;;;;;;5020391;28;20486;-75
2021/03/29 13:26:35;;;;;;;10.45;1.52;;;18.80;54.00;;;;;;5020914;28;20025;-75
2021/03/29 13:29:01;;;;;;;5.25;1.25;;;18.90;52.30;;;;;;5019355;28;20451;-75
2021/03/29 13:31:27;;;;;;;8.40;1.35;;;18.80;54.60;;;;;;5018550;28;20032;-75
2021/03/29 13:33:52;;;;;;;5.45;1.20;;;18.80;54.10;;;;;;5017377;28;20033;-75
2021/03/29 13:36:18;;;;;;;6.43;1.10;;;19.00;53.90;;;;;;5024193;28;20037;-74
2021/03/29 13:38:44;;;;;;;6.68;1.25;;;19.20;54.80;;;;;;5026366;28;20044;-75